METAR Data
IDs: Format: Raw Decoded Include TAF

Data at: 0050 UTC 24 May 2019

METAR for:PASD (Sand Point Arpt, AK, US)
Text:PASD 232356Z 26004KT 10SM FEW019 BKN038 BKN050 11/04 A3016 RMK AO2 SLP215 6//// T01060044 10111 20083 51012 PNO $
Temperature: 10.6°C ( 51°F)
Dewpoint: 4.4°C ( 40°F) [RH = 65%]
Pressure (altimeter):30.16 inches Hg (1021.4 mb) [Sea level pressure: 1021.5 mb]
Winds:from the W (260 degrees) at 5 MPH (4 knots; 2.1 m/s)
Visibility:10 or more sm (16+ km)
Ceiling:3800 feet AGL
Clouds: few clouds at 1900 feet AGL, broken clouds at 3800 feet AGL, broken clouds at 5000 feet AGL
QC Flag:SOME DATA ABOVE MAY BE INACCURATE!!!"$" is an indication the sensor requires maintenance.
Text:PASD 232353Z VRB03KT 10SM FEW019 BKN038 BKN050 11/04 A3016 RMK AO2 PNO $
Temperature: 11.0°C ( 52°F)
Dewpoint: 4.0°C ( 39°F) [RH = 62%]
Pressure (altimeter):30.16 inches Hg (1021.4 mb)
Winds:variable direction winds at 3 MPH (3 knots; 1.5 m/s)
Visibility:10 or more sm (16+ km)
Ceiling:3800 feet AGL
Clouds: few clouds at 1900 feet AGL, broken clouds at 3800 feet AGL, broken clouds at 5000 feet AGL
QC Flag:SOME DATA ABOVE MAY BE INACCURATE!!!"$" is an indication the sensor requires maintenance.
Text:PASD 232156Z 17003KT 10SM FEW024 SCT029 BKN038 11/03 A3014 RMK AO2 SLP209 T01060033 PNO $
Temperature: 10.6°C ( 51°F)
Dewpoint: 3.3°C ( 38°F) [RH = 61%]
Pressure (altimeter):30.14 inches Hg (1020.7 mb) [Sea level pressure: 1020.9 mb]
Winds:from the S (170 degrees) at 3 MPH (3 knots; 1.5 m/s)
Visibility:10 or more sm (16+ km)
Ceiling:3800 feet AGL
Clouds: few clouds at 2400 feet AGL, scattered clouds at 2900 feet AGL, broken clouds at 3800 feet AGL
QC Flag:SOME DATA ABOVE MAY BE INACCURATE!!!"$" is an indication the sensor requires maintenance.
Text:PASD 232056Z 28010KT 10SM SCT030 BKN047 11/04 A3012 RMK AO2 SLP204 6//// T01060039 53021 PNO $
Temperature: 10.6°C ( 51°F)
Dewpoint: 3.9°C ( 39°F) [RH = 63%]
Pressure (altimeter):30.12 inches Hg (1020.1 mb) [Sea level pressure: 1020.4 mb]
Winds:from the W (280 degrees) at 12 MPH (10 knots; 5.1 m/s)
Visibility:10 or more sm (16+ km)
Ceiling:4700 feet AGL
Clouds: scattered clouds at 3000 feet AGL, broken clouds at 4700 feet AGL
QC Flag:SOME DATA ABOVE MAY BE INACCURATE!!!"$" is an indication the sensor requires maintenance.
Text:PASD 231956Z 27009KT 10SM FEW023 SCT031 BKN047 09/04 A3010
Temperature: 9.0°C ( 48°F)
Dewpoint: 4.0°C ( 39°F) [RH = 71%]
Pressure (altimeter):30.10 inches Hg (1019.4 mb)
Winds:from the W (270 degrees) at 10 MPH (9 knots; 4.6 m/s)
Visibility:10 or more sm (16+ km)
Ceiling:4700 feet AGL
Clouds: few clouds at 2300 feet AGL, scattered clouds at 3100 feet AGL, broken clouds at 4700 feet AGL

TAF for:PASD (Sand Point Arpt, AK, US) issued at 2331 UTC 23 May 2019
Text:PASD 232331Z 2400/2424 29007KT P6SM FEW025 BKN035
Forecast period:0000 to 0400 UTC 24 May 2019
Forecast type:FROM: standard forecast or significant change
Winds:from the WNW (290 degrees) at 8 MPH (7 knots; 3.6 m/s)
Visibility:6 or more sm (10+ km)
Ceiling:3500 feet AGL
Clouds: few clouds at 2500 feet AGL, broken clouds at 3500 feet AGL
Text:FM240400 17006KT P6SM SCT250
Forecast period:0400 to 1200 UTC 24 May 2019
Forecast type:FROM: standard forecast or significant change
Winds:from the S (170 degrees) at 7 MPH (6 knots; 3.1 m/s)
Visibility:6 or more sm (10+ km)
Ceiling:at least 12,000 feet AGL
Clouds: scattered clouds at 25000 feet AGL
Text:FM241200 09006KT P6SM SCT250
Forecast period:1200 to 2000 UTC 24 May 2019
Forecast type:FROM: standard forecast or significant change
Winds:from the E (90 degrees) at 7 MPH (6 knots; 3.1 m/s)
Visibility:6 or more sm (10+ km)
Ceiling:at least 12,000 feet AGL
Clouds: scattered clouds at 25000 feet AGL
Text:FM242000 05010G17KT P6SM -RA BKN025 OVC100 AMD LTD TO CLD VIS AND WIND
Forecast period:2000 UTC 24 May 2019 to 0000 UTC 25 May 2019
Forecast type:FROM: standard forecast or significant change
Winds:from the NE (50 degrees) at 12 MPH (10 knots; 5.1 m/s) gusting to 20 MPH (17 knots; 8.7 m/s)
Visibility:6 or more sm (10+ km)
Ceiling:2500 feet AGL
Clouds: broken clouds at 2500 feet AGL, overcast cloud deck at 10000 feet AGL
Weather:-RA (light rain)